Time;durP1;ratioP1;P1;durP2;ratioP2;P2;SDS_P1;SDS_P2;PMS_P1;PMS_P2;Temp;Humidity;BMP_temperature;BMP_pressure;BME280_temperature;BME280_humidity;BME280_pressure;Samples;Min_cycle;Max_cycle;Signal;HPM_P1;HPM_P2
2022/04/17 00:00:04;;;;;;;;;;;5.50;59.60;;;;;;5024606;28;20301;-85
2022/04/17 00:02:29;;;;;;;;;;;5.60;60.10;;;;;;5012693;28;19952;-86
2022/04/17 00:04:54;;;;;;;;;;;5.60;60.00;;;;;;5031762;28;19998;-86
2022/04/17 00:07:20;;;;;;;;;;;5.60;60.40;;;;;;5024691;28;20321;-86
2022/04/17 00:09:45;;;;;;;;;;;5.60;59.80;;;;;;5029723;28;19921;-86
2022/04/17 00:12:11;;;;;;;;;;;5.50;61.10;;;;;;5026261;28;19913;-86
2022/04/17 00:14:37;;;;;;;;;;;5.50;60.80;;;;;;5012055;28;19921;-87
2022/04/17 00:17:03;;;;;;;;;;;5.50;60.70;;;;;;5013325;28;19917;-85
2022/04/17 00:19:28;;;;;;;;;;;5.60;60.70;;;;;;5017341;28;19921;-86
2022/04/17 00:21:54;;;;;;;;;;;5.60;61.10;;;;;;5017493;28;19920;-86
2022/04/17 00:24:20;;;;;;;;;;;5.50;61.20;;;;;;5014646;28;19971;-85
2022/04/17 00:26:45;;;;;;;;;;;5.60;61.60;;;;;;5007867;28;19948;-85
2022/04/17 00:29:10;;;;;;;;;;;5.50;61.70;;;;;;5007133;28;19932;-85
2022/04/17 00:31:36;;;;;;;;;;;5.50;62.30;;;;;;5000037;28;19924;-85
2022/04/17 00:34:01;;;;;;;;;;;5.50;62.40;;;;;;5010940;28;19944;-86
2022/04/17 00:36:27;;;;;;;;;;;5.50;63.20;;;;;;5019062;28;19913;-87
2022/04/17 00:38:52;;;;;;;;;;;5.40;62.50;;;;;;5031542;28;19943;-86
2022/04/17 00:41:18;;;;;;;;;;;5.40;63.10;;;;;;5011503;28;19921;-86
2022/04/17 00:43:47;;;;;;;;;;;5.40;63.90;;;;;;5015023;28;20003;-86
2022/04/17 00:46:13;;;;;;;;;;;5.40;64.70;;;;;;5018077;28;19928;-86
2022/04/17 00:48:39;;;;;;;;;;;5.40;63.90;;;;;;5014789;28;19925;-86
2022/04/17 00:51:07;;;;;;;;;;;5.40;64.40;;;;;;5028961;28;21428;-86
2022/04/17 00:53:34;;;;;;;;;;;5.40;65.40;;;;;;5015627;28;19918;-86
2022/04/17 00:56:00;;;;;;;;;;;5.30;66.60;;;;;;5024082;28;20616;-86
2022/04/17 00:58:27;;;;;;;;;;;5.30;65.90;;;;;;5031014;28;19977;-87
2022/04/17 01:00:53;;;;;;;;;;;5.30;65.80;;;;;;5031372;28;19925;-86
2022/04/17 01:03:19;;;;;;;;;;;5.30;66.30;;;;;;5031822;28;19991;-86
2022/04/17 01:05:46;;;;;;;;;;;5.20;66.40;;;;;;5015503;28;19923;-87
2022/04/17 01:08:12;;;;;;;;;;;5.20;67.20;;;;;;5030891;28;19960;-86
2022/04/17 01:10:38;;;;;;;;;;;5.20;68.40;;;;;;5010734;28;19965;-86
2022/04/17 01:13:04;;;;;;;;;;;5.10;67.90;;;;;;5027943;28;19917;-86
2022/04/17 01:15:30;;;;;;;;;;;5.00;70.50;;;;;;5024297;28;19999;-87
2022/04/17 01:17:56;;;;;;;;;;;4.90;71.20;;;;;;5026040;28;19955;-86
2022/04/17 01:20:22;;;;;;;;;;;4.90;72.50;;;;;;5031726;28;19949;-86
2022/04/17 01:22:48;;;;;;;;;;;4.80;72.60;;;;;;5025397;28;19920;-86
2022/04/17 01:27:58;;;;;;;;;;;4.70;76.00;;;;;;5020235;28;19924;-85
2022/04/17 01:30:23;;;;;;;;;;;4.60;77.30;;;;;;5030523;28;19917;-85
2022/04/17 01:32:49;;;;;;;;;;;4.50;79.60;;;;;;5007116;28;19917;-86
2022/04/17 01:35:14;;;;;;;;;;;4.40;80.10;;;;;;5029808;28;19914;-86
2022/04/17 01:37:39;;;;;;;;;;;4.40;81.00;;;;;;5028843;28;19921;-86
2022/04/17 01:40:05;;;;;;;;;;;4.40;83.10;;;;;;5030135;28;19936;-87
2022/04/17 01:42:31;;;;;;;;;;;4.30;82.60;;;;;;5012832;28;19950;-87
2022/04/17 01:44:57;;;;;;;;;;;4.30;85.10;;;;;;5016739;28;20377;-86
2022/04/17 01:47:23;;;;;;;;;;;4.20;85.10;;;;;;5010144;28;20000;-86
2022/04/17 01:49:48;;;;;;;;;;;4.20;85.30;;;;;;5033957;28;19925;-86
2022/04/17 01:52:14;;;;;;;;;;;4.20;87.00;;;;;;5017086;28;19975;-86
2022/04/17 01:54:39;;;;;;;;;;;4.10;87.40;;;;;;5037442;28;20361;-86
2022/04/17 01:57:05;;;;;;;;;;;4.10;87.60;;;;;;5018389;28;19921;-86
2022/04/17 01:59:31;;;;;;;;;;;4.10;88.50;;;;;;5020875;28;19917;-87
2022/04/17 02:01:57;;;;;;;;;;;4.10;89.50;;;;;;5011668;28;19944;-88
2022/04/17 02:04:26;;;;;;;;;;;4.10;90.10;;;;;;5039456;28;19940;-86
2022/04/17 02:06:52;;;;;;;;;;;4.00;90.10;;;;;;5033241;28;19927;-88
2022/04/17 02:09:17;;;;;;;;;;;4.00;90.30;;;;;;5056827;28;19917;-88
2022/04/17 02:11:44;;;;;;;;;;;4.00;91.00;;;;;;5037019;28;19932;-86
2022/04/17 02:14:10;;;;;;;;;;;4.00;91.00;;;;;;5036225;28;19935;-86
2022/04/17 02:16:36;;;;;;;;;;;3.90;91.80;;;;;;5032900;28;20406;-87
2022/04/17 02:19:02;;;;;;;;;;;3.90;91.70;;;;;;5018535;28;20005;-86
2022/04/17 02:21:28;;;;;;;;;;;3.90;92.60;;;;;;5020131;28;19953;-86
2022/04/17 02:23:54;;;;;;;;;;;3.90;93.20;;;;;;5036605;28;19944;-87
2022/04/17 02:26:19;;;;;;;;;;;3.80;92.40;;;;;;5026410;28;20370;-86
2022/04/17 02:28:45;;;;;;;;;;;3.80;93.20;;;;;;5032878;28;19921;-86
2022/04/17 02:31:11;;;;;;;;;;;3.80;93.60;;;;;;5015413;28;19917;-86
2022/04/17 02:33:37;;;;;;;;;;;3.80;93.40;;;;;;5033660;28;19920;-87
2022/04/17 02:36:03;;;;;;;;;;;3.70;93.30;;;;;;5027229;28;19917;-87
2022/04/17 02:38:28;;;;;;;;;;;3.70;93.90;;;;;;5034509;28;20294;-87
2022/04/17 02:40:54;;;;;;;;;;;3.70;94.00;;;;;;5031204;28;20255;-88
2022/04/17 02:43:19;;;;;;;;;;;3.70;93.70;;;;;;5034140;28;19917;-87
2022/04/17 02:45:45;;;;;;;;;;;3.70;94.50;;;;;;5012981;28;20341;-87
2022/04/17 02:48:11;;;;;;;;;;;3.70;94.10;;;;;;5036670;28;20412;-88
2022/04/17 02:50:36;;;;;;;;;;;3.70;95.10;;;;;;5017098;28;19921;-87
2022/04/17 02:53:02;;;;;;;;;;;3.60;94.40;;;;;;5020178;28;19921;-87
2022/04/17 02:55:28;;;;;;;;;;;3.60;95.00;;;;;;5026621;28;19917;-87
2022/04/17 02:57:54;;;;;;;;;;;3.70;94.60;;;;;;5035261;28;19925;-86
2022/04/17 03:00:19;;;;;;;;;;;3.70;95.10;;;;;;5004986;28;19917;-87
2022/04/17 03:05:36;;;;;;;;;;;3.60;95.40;;;;;;5018925;28;19975;-87
2022/04/17 03:08:02;;;;;;;;;;;3.70;94.90;;;;;;5031221;28;19928;-87
2022/04/17 03:10:27;;;;;;;;;;;3.60;95.80;;;;;;5011716;28;20012;-87
2022/04/17 03:12:53;;;;;;;;;;;3.60;95.00;;;;;;5014925;28;20345;-86
2022/04/17 03:15:18;;;;;;;;;;;3.60;94.80;;;;;;5018476;28;19963;-86
2022/04/17 03:17:44;;;;;;;;;;;3.60;94.70;;;;;;5014937;28;19956;-87
2022/04/17 03:20:09;;;;;;;;;;;3.60;94.70;;;;;;5006337;28;19913;-86
2022/04/17 03:22:35;;;;;;;;;;;3.60;95.00;;;;;;5030850;28;19928;-87
2022/04/17 03:25:02;;;;;;;;;;;3.60;94.60;;;;;;5023082;28;19917;-86
2022/04/17 03:27:30;;;;;;;;;;;3.60;95.00;;;;;;5015017;28;19913;-87
2022/04/17 03:29:56;;;;;;;;;;;3.60;95.60;;;;;;5022895;28;19921;-87
2022/04/17 03:32:21;;;;;;;;;;;3.50;95.70;;;;;;5027163;28;19920;-86
2022/04/17 03:34:47;;;;;;;;;;;3.40;95.80;;;;;;5023833;28;20271;-86
2022/04/17 03:37:14;;;;;;;;;;;3.40;96.30;;;;;;5014725;28;19917;-87
2022/04/17 03:39:40;;;;;;;;;;;3.40;96.00;;;;;;5016928;28;19937;-87
2022/04/17 03:42:05;;;;;;;;;;;3.30;96.20;;;;;;5030489;28;19913;-87
2022/04/17 03:44:31;;;;;;;;;;;3.20;96.90;;;;;;5008181;28;20349;-86
2022/04/17 03:46:56;;;;;;;;;;;3.20;97.30;;;;;;5013041;28;19917;-86
2022/04/17 03:49:22;;;;;;;;;;;3.10;98.20;;;;;;5010583;28;19921;-86
2022/04/17 03:51:47;;;;;;;;;;;3.10;99.10;;;;;;5010867;28;19948;-87
2022/04/17 03:54:13;;;;;;;;;;;3.00;99.80;;;;;;5008676;28;20385;-86
2022/04/17 03:56:38;;;;;;;;;;;2.90;99.90;;;;;;5006262;28;19959;-86
2022/04/17 03:59:04;;;;;;;;;;;2.90;99.80;;;;;;5031098;28;20025;-86
2022/04/17 04:01:29;;;;;;;;;;;2.90;99.20;;;;;;5023437;28;19926;-87
2022/04/17 04:03:55;;;;;;;;;;;2.90;99.70;;;;;;5021742;28;20344;-86
2022/04/17 04:06:21;;;;;;;;;;;2.90;99.80;;;;;;5012683;28;20372;-87
2022/04/17 04:08:48;;;;;;;;;;;2.80;99.80;;;;;;5027937;28;19921;-86
2022/04/17 04:11:14;;;;;;;;;;;2.80;99.90;;;;;;5028774;28;19920;-86
2022/04/17 04:13:42;;;;;;;;;;;2.80;99.90;;;;;;5024842;28;19921;-86
2022/04/17 04:16:07;;;;;;;;;;;2.70;99.90;;;;;;5009967;28;19944;-86
2022/04/17 04:18:33;;;;;;;;;;;2.70;99.90;;;;;;5020910;28;20432;-88
2022/04/17 04:20:58;;;;;;;;;;;2.70;99.90;;;;;;5030027;28;20395;-86
2022/04/17 04:23:24;;;;;;;;;;;2.70;99.90;;;;;;5008662;28;19947;-86
2022/04/17 04:25:49;;;;;;;;;;;2.60;99.90;;;;;;5029815;28;19916;-87
2022/04/17 04:28:33;;;;;;;;;;;2.60;99.90;;;;;;5008367;28;19920;-86
2022/04/17 04:31:19;;;;;;;;;;;2.60;99.90;;;;;;5029558;28;19925;-86
2022/04/17 04:33:44;;;;;;;;;;;2.50;99.90;;;;;;5017984;28;19916;-86
2022/04/17 04:36:14;;;;;;;;;;;2.50;99.90;;;;;;5031627;28;19925;-87
2022/04/17 04:38:39;;;;;;;;;;;2.50;99.90;;;;;;5019326;28;19917;-86
2022/04/17 04:41:05;;;;;;;;;;;2.40;99.90;;;;;;5029674;28;19996;-87
2022/04/17 04:43:31;;;;;;;;;;;2.40;99.90;;;;;;5019926;28;20399;-86
2022/04/17 04:46:12;;;;;;;;;;;2.40;99.90;;;;;;5029594;28;19924;-86
2022/04/17 04:51:23;;;;;;;;;;;2.40;99.90;;;;;;5031235;28;19929;-86
2022/04/17 04:53:49;;;;;;;;;;;2.50;99.90;;;;;;4997307;28;19944;-86
2022/04/17 04:56:16;;;;;;;;;;;2.50;99.90;;;;;;5018457;28;19929;-86
2022/04/17 04:58:41;;;;;;;;;;;2.60;99.90;;;;;;5029091;28;19921;-86
2022/04/17 05:01:07;;;;;;;;;;;2.60;99.90;;;;;;5027926;23;19940;-80
2022/04/17 05:03:33;;;;;;;;;;;2.70;99.90;;;;;;5032586;28;19975;-81
2022/04/17 05:05:58;;;;;;;;;;;2.70;99.90;;;;;;5018993;28;20015;-80
2022/04/17 05:08:24;;;;;;;;;;;2.80;99.90;;;;;;5020042;28;19917;-81
2022/04/17 05:10:49;;;;;;;;;;;2.90;99.90;;;;;;5016697;28;20371;-80
2022/04/17 05:13:15;;;;;;;;;;;3.00;99.90;;;;;;5048510;28;19921;-80
2022/04/17 05:15:41;;;;;;;;;;;3.10;99.90;;;;;;5016634;28;20016;-80
2022/04/17 05:18:06;;;;;;;;;;;3.20;99.90;;;;;;5048215;28;19929;-80
2022/04/17 05:20:35;;;;;;;;;;;3.30;99.90;;;;;;5036903;28;19987;-80
2022/04/17 05:23:22;;;;;;;;;;;3.40;99.90;;;;;;5034773;28;20039;-80
2022/04/17 05:25:51;;;;;;;;;;;3.50;99.40;;;;;;5046408;28;19913;-80
2022/04/17 05:28:17;;;;;;;;;;;3.60;99.70;;;;;;5047240;28;19966;-80
2022/04/17 05:30:43;;;;;;;;;;;3.70;99.80;;;;;;5026783;28;19972;-80
2022/04/17 05:33:09;;;;;;;;;;;3.80;98.90;;;;;;5020830;28;19925;-80
2022/04/17 05:35:35;;;;;;;;;;;3.80;98.60;;;;;;5045680;28;20257;-81
2022/04/17 05:38:01;;;;;;;;;;;3.90;98.00;;;;;;5067798;28;20292;-81
2022/04/17 05:40:26;;;;;;;;;;;4.00;98.60;;;;;;5045583;28;19920;-80
2022/04/17 05:42:52;;;;;;;;;;;4.10;99.10;;;;;;5044731;28;19917;-82
2022/04/17 05:45:18;;;;;;;;;;;4.10;97.90;;;;;;5032189;28;19932;-81
2022/04/17 05:47:43;;;;;;;;;;;4.20;99.00;;;;;;5067269;28;20019;-80
2022/04/17 05:50:09;;;;;;;;;;;4.30;97.50;;;;;;5043099;28;19925;-80
2022/04/17 05:52:35;;;;;;;;;;;4.40;97.00;;;;;;5032104;28;19920;-80
2022/04/17 05:55:00;;;;;;;;;;;4.50;96.30;;;;;;5042026;28;20403;-80
2022/04/17 05:57:26;;;;;;;;;;;4.50;95.90;;;;;;5039554;28;20020;-80
2022/04/17 05:59:52;;;;;;;;;;;4.60;96.70;;;;;;5025309;28;19917;-80
2022/04/17 06:02:18;;;;;;;;;;;4.70;95.10;;;;;;5037326;28;19939;-80
2022/04/17 06:04:43;;;;;;;;;;;4.80;96.40;;;;;;5045713;28;20407;-83
2022/04/17 06:07:09;;;;;;;;;;;4.90;95.20;;;;;;5046391;28;19917;-83
2022/04/17 06:09:35;;;;;;;;;;;5.00;92.80;;;;;;5054839;28;19928;-83
2022/04/17 06:12:01;;;;;;;;;;;5.10;92.80;;;;;;5034226;28;19913;-83
2022/04/17 06:14:26;;;;;;;;;;;5.20;93.80;;;;;;5036580;28;19936;-83
2022/04/17 06:16:52;;;;;;;;;;;5.30;92.50;;;;;;5039303;28;19960;-84
2022/04/17 06:19:17;;;;;;;;;;;5.40;92.50;;;;;;5046172;28;19921;-84
2022/04/17 06:21:43;;;;;;;;;;;5.50;92.60;;;;;;5045402;28;19921;-83
2022/04/17 06:24:08;;;;;;;;;;;5.60;91.60;;;;;;5039471;28;19923;-82
2022/04/17 06:26:34;;;;;;;;;;;5.70;91.40;;;;;;5027813;28;20359;-81
2022/04/17 06:29:03;;;;;;;;;;;5.80;89.80;;;;;;5037893;28;20023;-82
2022/04/17 06:31:29;;;;;;;;;;;5.90;90.70;;;;;;5019940;28;19924;-82
2022/04/17 06:33:55;;;;;;;;;;;6.00;88.10;;;;;;5049770;28;19964;-82
2022/04/17 06:36:20;;;;;;;;;;;6.10;87.30;;;;;;5023527;28;19983;-82
2022/04/17 06:38:46;;;;;;;;;;;6.20;88.10;;;;;;5043350;28;19917;-82
2022/04/17 06:41:12;;;;;;;;;;;6.30;87.20;;;;;;5044729;28;20001;-82
2022/04/17 06:43:37;;;;;;;;;;;6.40;88.90;;;;;;5032824;28;20264;-82
2022/04/17 06:46:03;;;;;;;;;;;6.50;86.70;;;;;;5028011;28;19924;-84
2022/04/17 06:48:29;;;;;;;;;;;6.60;82.30;;;;;;5034306;28;20004;-82
2022/04/17 06:50:57;;;;;;;;;;;6.70;79.40;;;;;;5024841;28;20008;-82
2022/04/17 06:53:23;;;;;;;;;;;6.80;79.80;;;;;;5040502;28;20315;-82
2022/04/17 06:55:49;;;;;;;;;;;6.90;80.50;;;;;;5027576;28;19935;-82
2022/04/17 06:58:18;;;;;;;;;;;7.00;78.50;;;;;;5035336;28;19924;-82
2022/04/17 07:00:43;;;;;;;;;;;7.10;78.90;;;;;;5042688;28;20410;-82
2022/04/17 07:03:09;;;;;;;;;;;7.20;74.90;;;;;;5048290;28;19919;-82
2022/04/17 07:05:35;;;;;;;;;;;7.20;70.60;;;;;;5039312;28;19921;-82
2022/04/17 07:08:02;;;;;;;;;;;7.30;70.70;;;;;;5038411;28;19917;-83
2022/04/17 07:10:28;;;;;;;;;;;7.30;70.70;;;;;;5020514;28;19924;-83
2022/04/17 07:12:54;;;;;;;;;;;7.50;74.40;;;;;;5044886;28;20325;-82
2022/04/17 07:15:20;;;;;;;;;;;7.60;71.10;;;;;;5042125;28;19927;-82
2022/04/17 07:17:46;;;;;;;;;;;7.70;69.10;;;;;;5049109;28;20068;-81
2022/04/17 07:20:11;;;;;;;;;;;7.80;65.80;;;;;;5036816;28;20344;-81
2022/04/17 07:22:38;;;;;;;;;;;7.90;64.50;;;;;;5019049;28;19995;-81
2022/04/17 07:25:04;;;;;;;;;;;8.00;63.70;;;;;;5046552;28;19913;-81
2022/04/17 07:27:41;;;;;;;;;;;8.10;62.40;;;;;;5030033;28;19929;-82
2022/04/17 07:30:09;;;;;;;;;;;8.20;60.10;;;;;;5033536;28;19928;-81
2022/04/17 07:32:35;;;;;;;;;;;8.30;59.00;;;;;;5070309;28;20323;-84
2022/04/17 07:35:00;;;;;;;;;;;8.40;58.80;;;;;;5013180;28;19917;-83
2022/04/17 07:37:26;;;;;;;;;;;8.50;57.00;;;;;;5053467;28;19918;-83
2022/04/17 07:39:52;;;;;;;;;;;8.60;57.30;;;;;;5026358;28;19920;-83
2022/04/17 07:42:19;;;;;;;;;;;8.70;57.30;;;;;;5015337;28;19917;-83
2022/04/17 07:44:45;;;;;;;;;;;8.80;54.90;;;;;;5031817;28;19953;-82
2022/04/17 07:47:10;;;;;;;;;;;8.90;53.80;;;;;;5031761;28;19964;-84
2022/04/17 07:49:36;;;;;;;;;;;9.00;55.00;;;;;;5024037;28;19918;-84
2022/04/17 07:52:01;;;;;;;;;;;9.10;54.50;;;;;;5028203;28;19921;-83
2022/04/17 07:54:27;;;;;;;;;;;9.20;53.40;;;;;;5048466;28;19964;-83
2022/04/17 07:56:52;;;;;;;;;;;9.30;53.10;;;;;;5054078;28;20427;-85
2022/04/17 07:59:18;;;;;;;;;;;9.50;53.10;;;;;;5052106;28;19948;-81
2022/04/17 08:01:45;;;;;;;;;;;9.60;52.50;;;;;;5026327;28;20307;-80
2022/04/17 08:04:11;;;;;;;;;;;9.70;51.80;;;;;;5030890;28;19917;-80
2022/04/17 08:06:37;;;;;;;;;;;9.90;51.10;;;;;;5034619;28;19921;-82
2022/04/17 08:09:02;;;;;;;;;;;10.00;52.50;;;;;;5015865;28;19956;-80
2022/04/17 08:11:29;;;;;;;;;;;10.10;51.60;;;;;;5071134;28;19924;-80
2022/04/17 08:13:55;;;;;;;;;;;10.10;50.40;;;;;;5040562;28;20203;-80
2022/04/17 08:16:21;;;;;;;;;;;10.20;50.90;;;;;;5047971;28;20271;-80
2022/04/17 08:18:46;;;;;;;;;;;10.40;51.90;;;;;;5042587;28;19917;-82
2022/04/17 08:21:12;;;;;;;;;;;10.50;49.80;;;;;;5030664;28;19913;-82
2022/04/17 08:23:37;;;;;;;;;;;10.60;50.30;;;;;;5051816;28;19917;-83
2022/04/17 08:26:04;;;;;;;;;;;10.60;49.30;;;;;;5019595;28;19967;-82
2022/04/17 08:28:30;;;;;;;;;;;10.60;48.70;;;;;;5036977;28;19924;-82
2022/04/17 08:30:56;;;;;;;;;;;10.60;48.60;;;;;;5029152;28;20380;-83
2022/04/17 08:33:23;;;;;;;;;;;10.60;48.00;;;;;;5049565;28;20280;-82
2022/04/17 08:35:49;;;;;;;;;;;10.70;47.90;;;;;;5037889;28;20211;-82
2022/04/17 08:38:16;;;;;;;;;;;10.80;48.00;;;;;;5043183;28;19921;-82
2022/04/17 08:40:41;;;;;;;;;;;10.80;48.20;;;;;;5050418;28;19968;-80
2022/04/17 08:43:08;;;;;;;;;;;10.90;50.60;;;;;;5025730;28;19975;-80
2022/04/17 08:45:33;;;;;;;;;;;11.00;49.30;;;;;;5038964;28;19936;-80
2022/04/17 08:47:59;;;;;;;;;;;11.10;49.00;;;;;;5034134;28;19919;-80
2022/04/17 08:50:25;;;;;;;;;;;11.20;47.80;;;;;;5016550;28;20027;-80
2022/04/17 08:53:11;;;;;;;;;;;11.20;48.30;;;;;;5025188;28;19956;-80
2022/04/17 08:55:38;;;;;;;;;;;11.30;49.00;;;;;;5038877;28;19913;-80
2022/04/17 08:58:04;;;;;;;;;;;11.40;48.20;;;;;;5011047;28;20343;-80
2022/04/17 09:00:29;;;;;;;;;;;11.50;48.80;;;;;;5041207;28;20291;-80
2022/04/17 09:02:55;;;;;;;;;;;11.50;48.60;;;;;;5064288;28;19967;-80
2022/04/17 09:05:21;;;;;;;;;;;11.60;47.80;;;;;;5022155;28;19921;-80
2022/04/17 09:07:51;;;;;;;;;;;11.70;47.60;;;;;;5021456;28;19921;-80
2022/04/17 09:10:43;;;;;;;;;;;11.70;47.50;;;;;;5040377;28;19920;-80
2022/04/17 09:13:08;;;;;;;;;;;11.80;49.50;;;;;;5022842;28;20124;-80
2022/04/17 09:15:35;;;;;;;;;;;11.80;49.50;;;;;;5020281;28;20004;-80
2022/04/17 09:18:01;;;;;;;;;;;11.80;48.50;;;;;;5037625;28;19960;-80
2022/04/17 09:20:27;;;;;;;;;;;11.80;49.70;;;;;;5037438;28;20318;-80
2022/04/17 09:22:54;;;;;;;;;;;11.80;49.50;;;;;;5023700;28;20376;-80
2022/04/17 09:25:22;;;;;;;;;;;11.80;50.00;;;;;;5038002;28;19917;-80
2022/04/17 09:28:20;;;;;;;;;;;11.80;49.40;;;;;;5013037;28;19927;-79
2022/04/17 09:30:47;;;;;;;;;;;11.70;49.00;;;;;;5019380;28;20062;-80
2022/04/17 09:33:13;;;;;;;;;;;11.70;50.70;;;;;;5023729;28;20399;-80
2022/04/17 09:35:39;;;;;;;;;;;11.80;51.80;;;;;;5020864;28;20387;-79
2022/04/17 09:38:08;;;;;;;;;;;11.80;53.00;;;;;;5033772;28;19914;-80
2022/04/17 09:40:37;;;;;;;;;;;11.90;53.30;;;;;;5038925;28;19916;-79
2022/04/17 09:43:08;;;;;;;;;;;12.00;52.80;;;;;;5048328;28;19913;-80
2022/04/17 09:45:34;;;;;;;;;;;12.00;51.10;;;;;;5042102;28;19917;-80
2022/04/17 09:48:00;;;;;;;;;;;12.00;51.30;;;;;;5050274;28;19921;-79
2022/04/17 09:50:35;;;;;;;;;;;12.00;50.00;;;;;;5039383;28;19928;-79
2022/04/17 09:53:05;;;;;;;;;;;12.10;50.50;;;;;;5059975;28;19921;-80
2022/04/17 09:55:33;;;;;;;;;;;12.20;49.40;;;;;;5021672;28;19917;-80
2022/04/17 09:57:58;;;;;;;;;;;12.30;53.00;;;;;;5050024;28;20449;-81
2022/04/17 10:00:24;;;;;;;;;;;12.40;50.80;;;;;;5015418;28;19959;-81
2022/04/17 10:02:50;;;;;;;;;;;12.50;49.90;;;;;;5038439;28;19999;-79
2022/04/17 10:05:20;;;;;;;;;;;12.50;49.10;;;;;;5029674;28;20015;-79
2022/04/17 10:07:46;;;;;;;;;;;12.50;47.60;;;;;;5066413;28;19913;-79
2022/04/17 10:10:13;;;;;;;;;;;12.60;49.80;;;;;;5043388;28;19925;-79
2022/04/17 10:12:39;;;;;;;;;;;12.70;49.80;;;;;;5052917;28;19913;-79
2022/04/17 10:15:06;;;;;;;;;;;12.70;49.40;;;;;;5046617;28;19913;-79
2022/04/17 10:17:32;;;;;;;;;;;12.80;48.30;;;;;;5032880;28;20287;-79
2022/04/17 10:20:08;;;;;;;;;;;12.90;49.70;;;;;;5032616;28;19913;-79
2022/04/17 10:22:34;;;;;;;;;;;13.00;47.20;;;;;;5016250;28;20007;-79
2022/04/17 10:25:02;;;;;;;;;;;13.00;44.90;;;;;;5016168;28;20390;-79
2022/04/17 10:27:37;;;;;;;;;;;13.10;44.50;;;;;;5016221;28;19917;-79
2022/04/17 10:30:14;;;;;;;;;;;13.10;45.20;;;;;;5032286;28;19913;-79
2022/04/17 10:32:59;;;;;;;;;;;13.20;44.40;;;;;;5032504;28;19976;-79
2022/04/17 10:35:49;;;;;;;;;;;13.30;44.60;;;;;;5065763;28;19913;-79
2022/04/17 10:38:24;;;;;;;;;;;13.50;49.10;;;;;;5065681;28;19909;-79
2022/04/17 10:40:51;;;;;;;;;;;13.50;44.30;;;;;;5065684;28;20290;-79
2022/04/17 10:43:17;;;;;;;;;;;13.70;47.40;;;;;;5049111;28;19917;-79
2022/04/17 10:46:01;;;;;;;;;;;13.80;43.90;;;;;;5015856;28;19921;-79
2022/04/17 10:48:27;;;;;;;;;;;13.90;44.20;;;;;;5031898;28;19909;-79
2022/04/17 10:50:52;;;;;;;;;;;13.90;44.10;;;;;;5015732;28;19917;-79
2022/04/17 10:53:25;;;;;;;;;;;14.00;45.30;;;;;;5032101;28;20283;-79
2022/04/17 10:56:07;;;;;;;;;;;14.10;45.10;;;;;;5015626;28;20003;-79
2022/04/17 10:58:41;;;;;;;;;;;14.10;45.00;;;;;;5015307;28;20323;-79
2022/04/17 11:01:08;;;;;;;;;;;14.20;43.90;;;;;;5048776;22;20417;-84
2022/04/17 11:03:34;;;;;;;;;;;14.20;45.90;;;;;;4985551;28;19925;-84
2022/04/17 11:06:20;;;;;;;;;;;14.30;43.90;;;;;;5001375;28;19910;-84
2022/04/17 11:08:57;;;;;;;;;;;14.30;45.30;;;;;;5001403;28;20035;-84
2022/04/17 11:11:33;;;;;;;;;;;14.30;43.20;;;;;;5001630;28;19925;-84
2022/04/17 11:14:10;;;;;;;;;;;14.40;41.90;;;;;;5001851;28;20277;-85
2022/04/17 11:17:07;;;;;;;;;;;14.40;41.10;;;;;;5004618;28;20326;-85
2022/04/17 11:19:34;;;;;;;;;;;14.50;42.90;;;;;;5030654;28;19935;-85
2022/04/17 11:22:04;;;;;;;;;;;14.60;41.90;;;;;;5038395;28;19893;-85
2022/04/17 11:24:48;;;;;;;;;;;14.70;42.30;;;;;;5009366;28;19924;-84
2022/04/17 11:27:14;;;;;;;;;;;14.80;42.70;;;;;;5020080;28;19952;-84
2022/04/17 11:29:40;;;;;;;;;;;15.00;45.30;;;;;;5003951;28;19917;-84
2022/04/17 11:32:29;;;;;;;;;;;15.20;45.10;;;;;;5011701;28;19921;-84
2022/04/17 11:34:56;;;;;;;;;;;15.30;44.50;;;;;;4991173;28;19910;-84
2022/04/17 11:37:25;;;;;;;;;;;15.20;46.80;;;;;;4997979;28;19955;-84
2022/04/17 11:39:52;;;;;;;;;;;15.00;46.40;;;;;;4998803;28;19944;-84
2022/04/17 11:42:18;;;;;;;;;;;14.80;47.30;;;;;;4997895;28;20422;-84
2022/04/17 11:44:45;;;;;;;;;;;14.80;44.40;;;;;;4987264;28;19944;-84
2022/04/17 11:47:17;;;;;;;;;;;14.80;44.00;;;;;;5018570;28;20276;-84
2022/04/17 11:49:43;;;;;;;;;;;14.80;43.70;;;;;;5017580;28;19922;-84
2022/04/17 11:52:19;;;;;;;;;;;14.80;46.70;;;;;;5011513;28;20554;-84
2022/04/17 11:54:45;;;;;;;;;;;14.90;45.30;;;;;;4999422;28;19936;-84
2022/04/17 11:57:11;;;;;;;;;;;15.00;45.30;;;;;;5001461;28;19919;-84
2022/04/17 11:59:43;;;;;;;;;;;14.90;45.10;;;;;;4986636;28;19917;-85
2022/04/17 12:02:09;;;;;;;;;;;14.90;44.70;;;;;;5001009;28;19918;-84
2022/04/17 12:04:36;;;;;;;;;;;14.90;45.70;;;;;;4968829;28;19921;-84
2022/04/17 12:07:01;;;;;;;;;;;15.00;47.30;;;;;;4982894;28;20005;-84
2022/04/17 12:09:27;;;;;;;;;;;14.90;45.30;;;;;;4984696;28;19953;-84
2022/04/17 12:11:52;;;;;;;;;;;15.00;46.20;;;;;;4984385;28;19917;-84
2022/04/17 12:14:28;;;;;;;;;;;15.00;43.90;;;;;;4983344;28;20131;-85
2022/04/17 12:16:53;;;;;;;;;;;15.00;46.30;;;;;;4990920;28;20217;-84
2022/04/17 12:19:19;;;;;;;;;;;15.00;47.00;;;;;;4986350;28;19945;-85
2022/04/17 12:21:44;;;;;;;;;;;15.00;47.10;;;;;;4986698;28;19953;-84
2022/04/17 12:24:10;;;;;;;;;;;15.10;47.60;;;;;;5002240;28;20007;-86
2022/04/17 12:26:36;;;;;;;;;;;15.10;46.00;;;;;;4971288;28;19973;-84
2022/04/17 12:29:01;;;;;;;;;;;15.20;45.60;;;;;;4979655;28;20389;-84
2022/04/17 12:31:27;;;;;;;;;;;15.30;45.60;;;;;;4996481;28;19917;-84
2022/04/17 12:34:05;;;;;;;;;;;15.40;45.70;;;;;;4978274;28;19921;-84
2022/04/17 12:36:31;;;;;;;;;;;15.40;47.60;;;;;;4979810;28;20364;-84
2022/04/17 12:38:57;;;;;;;;;;;15.40;44.90;;;;;;4979908;28;19914;-84
2022/04/17 12:41:24;;;;;;;;;;;15.40;45.60;;;;;;4979982;28;20292;-84
2022/04/17 12:43:50;;;;;;;;;;;15.40;45.50;;;;;;4973813;28;19918;-85
2022/04/17 12:46:22;;;;;;;;;;;15.40;43.60;;;;;;5000328;28;20487;-85
2022/04/17 12:49:00;;;;;;;;;;;15.30;46.10;;;;;;4971599;28;19918;-84
2022/04/17 12:51:26;;;;;;;;;;;15.20;44.80;;;;;;4985265;28;19921;-84
2022/04/17 12:53:52;;;;;;;;;;;15.20;44.80;;;;;;4970165;28;20475;-84
2022/04/17 12:56:18;;;;;;;;;;;15.20;44.30;;;;;;4984561;28;19914;-84
2022/04/17 12:58:50;;;;;;;;;;;15.10;45.80;;;;;;4988214;28;20375;-84
2022/04/17 13:01:20;;;;;;;;;;;15.20;45.90;;;;;;5006977;28;20266;-84
2022/04/17 13:03:46;;;;;;;;;;;15.20;46.00;;;;;;4970597;28;19993;-85
2022/04/17 13:06:17;;;;;;;;;;;15.30;47.30;;;;;;4986360;28;19914;-84
2022/04/17 13:08:42;;;;;;;;;;;15.30;46.80;;;;;;4988995;28;19920;-84
2022/04/17 13:11:20;;;;;;;;;;;15.50;44.80;;;;;;4973120;28;19922;-84
2022/04/17 13:13:50;;;;;;;;;;;15.50;44.50;;;;;;4963875;28;20432;-84
2022/04/17 13:16:16;;;;;;;;;;;15.40;44.30;;;;;;4980591;28;19983;-84
2022/04/17 13:18:41;;;;;;;;;;;15.40;44.90;;;;;;4974274;28;19917;-84
2022/04/17 13:21:07;;;;;;;;;;;15.30;44.20;;;;;;4972641;28;19917;-84
2022/04/17 13:23:33;;;;;;;;;;;15.20;44.70;;;;;;4966644;28;19960;-84
2022/04/17 13:25:58;;;;;;;;;;;15.10;42.80;;;;;;4971557;28;20299;-84
2022/04/17 13:28:24;;;;;;;;;;;15.20;46.40;;;;;;4975966;28;19957;-85
2022/04/17 13:30:51;;;;;;;;;;;15.20;45.80;;;;;;4989646;28;20005;-85
2022/04/17 13:33:17;;;;;;;;;;;15.20;44.20;;;;;;4973835;28;20350;-85
2022/04/17 13:35:43;;;;;;;;;;;15.20;42.00;;;;;;4971652;28;19971;-84
2022/04/17 13:38:11;;;;;;;;;;;15.20;45.80;;;;;;4987932;28;19921;-84
2022/04/17 13:40:37;;;;;;;;;;;15.20;42.90;;;;;;4995912;28;20000;-85
2022/04/17 13:43:03;;;;;;;;;;;15.20;41.70;;;;;;5001989;28;19955;-84
2022/04/17 13:45:28;;;;;;;;;;;15.30;42.20;;;;;;4978336;28;20024;-85
2022/04/17 13:47:54;;;;;;;;;;;15.40;42.40;;;;;;4972860;28;19985;-85
2022/04/17 13:50:19;;;;;;;;;;;15.40;43.40;;;;;;4981338;28;19921;-85
2022/04/17 13:52:45;;;;;;;;;;;15.40;43.70;;;;;;4995043;28;19914;-84
2022/04/17 13:55:11;;;;;;;;;;;15.40;44.40;;;;;;5002369;28;19920;-84
2022/04/17 13:57:37;;;;;;;;;;;15.30;41.40;;;;;;4979930;28;19968;-85
2022/04/17 14:00:03;;;;;;;;;;;15.30;42.20;;;;;;4992515;28;19921;-83
2022/04/17 14:02:29;;;;;;;;;;;15.20;40.60;;;;;;4999128;28;19917;-83
2022/04/17 14:04:54;;;;;;;;;;;15.20;42.40;;;;;;4999960;28;19914;-83
2022/04/17 14:07:20;;;;;;;;;;;15.20;41.20;;;;;;4979788;28;20060;-83
2022/04/17 14:09:45;;;;;;;;;;;15.20;41.10;;;;;;4973859;28;19926;-82
2022/04/17 14:12:12;;;;;;;;;;;15.20;41.70;;;;;;4996605;28;19921;-83
2022/04/17 14:14:41;;;;;;;;;;;15.20;42.80;;;;;;4984952;28;19975;-83
2022/04/17 14:17:07;;;;;;;;;;;15.30;40.70;;;;;;4994585;28;19925;-82
2022/04/17 14:19:33;;;;;;;;;;;15.20;38.10;;;;;;4984061;28;19914;-82
2022/04/17 14:21:58;;;;;;;;;;;15.30;40.50;;;;;;4997002;28;20404;-84
2022/04/17 14:24:24;;;;;;;;;;;15.30;40.50;;;;;;4994572;28;19918;-83
2022/04/17 14:26:52;;;;;;;;;;;15.40;37.60;;;;;;4976220;28;20360;-84
2022/04/17 14:29:18;;;;;;;;;;;15.40;39.10;;;;;;4997961;28;19928;-83
2022/04/17 14:31:44;;;;;;;;;;;15.40;43.00;;;;;;5001466;28;19913;-83